createdAt,value
2023-09-25T00:02:49.222Z,84.87
2023-09-25T00:08:10.965Z,84.57
2023-09-25T00:13:32.708Z,84.33
2023-09-25T00:18:54.521Z,84.98
2023-09-25T00:24:16.352Z,85.42
2023-09-25T00:29:38.074Z,85.11
2023-09-25T00:34:59.785Z,85.16
2023-09-25T00:40:21.570Z,84.76
2023-09-25T00:45:45.340Z,84.80
2023-09-25T00:51:07.334Z,84.64
2023-09-25T00:56:29.484Z,85.23
2023-09-25T01:01:51.249Z,85.00
2023-09-25T01:07:13.121Z,85.36
2023-09-25T01:12:35.175Z,85.13
2023-09-25T01:17:57.266Z,85.40
2023-09-25T01:23:19.080Z,85.62
2023-09-25T01:28:40.769Z,85.65
2023-09-25T01:34:02.665Z,85.74
2023-09-25T01:39:24.427Z,85.85
2023-09-25T01:44:46.189Z,85.88
2023-09-25T01:50:08.260Z,85.59
2023-09-25T01:55:32.231Z,85.68
2023-09-25T02:00:53.991Z,86.04
2023-09-25T02:06:15.762Z,86.04
2023-09-25T02:11:37.948Z,86.58
2023-09-25T02:16:59.689Z,86.78
2023-09-25T02:22:21.467Z,87.32
2023-09-25T02:27:43.313Z,87.73
2023-09-25T02:33:05.319Z,88.11
2023-09-25T02:38:27.067Z,88.86
2023-09-25T02:43:48.768Z,88.86
2023-09-25T02:49:10.484Z,89.33
2023-09-25T02:54:32.361Z,89.50
2023-09-25T02:59:54.155Z,90.50
2023-09-25T03:05:15.880Z,91.05
2023-09-25T03:10:37.995Z,91.48
2023-09-25T03:15:59.819Z,91.74
2023-09-25T03:21:21.664Z,92.22
2023-09-25T03:26:43.354Z,92.48
2023-09-25T03:32:05.066Z,92.93
2023-09-25T03:37:26.854Z,93.03
2023-09-25T03:42:48.554Z,93.21
2023-09-25T03:48:10.379Z,93.74
2023-09-25T03:53:32.203Z,94.24
2023-09-25T03:58:53.902Z,94.01
2023-09-25T04:04:15.744Z,93.80
2023-09-25T04:09:37.554Z,94.67
2023-09-25T04:14:59.310Z,94.31
2023-09-25T04:20:21.230Z,93.81
2023-09-25T04:25:43.011Z,93.62
2023-09-25T04:31:05.710Z,93.45
2023-09-25T04:36:27.585Z,93.40
2023-09-25T04:41:49.314Z,93.60
2023-09-25T04:47:11.013Z,93.82
2023-09-25T04:52:32.765Z,93.45
2023-09-25T04:57:54.526Z,93.69
2023-09-25T05:03:16.411Z,93.15
2023-09-25T05:08:38.909Z,92.62
2023-09-25T05:14:00.647Z,92.10
2023-09-25T05:19:22.684Z,92.04
2023-09-25T05:24:44.403Z,92.11
2023-09-25T05:30:08.156Z,91.13
2023-09-25T05:35:29.865Z,90.97
2023-09-25T05:40:51.547Z,89.92
2023-09-25T05:46:13.255Z,89.48
2023-09-25T05:51:35.064Z,88.50
2023-09-25T05:56:56.776Z,87.56
2023-09-25T06:02:18.540Z,86.92
2023-09-25T06:07:40.308Z,85.83
2023-09-25T06:13:02.048Z,84.93
2023-09-25T06:18:23.826Z,83.50
2023-09-25T06:23:45.623Z,81.87
2023-09-25T06:29:08.359Z,80.89
2023-09-25T06:34:30.150Z,79.19
2023-09-25T06:39:52.045Z,77.76
2023-09-25T06:45:13.837Z,75.90
2023-09-25T06:50:35.684Z,74.92
2023-09-25T06:55:58.394Z,70.49
2023-09-25T07:01:20.402Z,35.15
2023-09-25T07:06:42.285Z,28.54
2023-09-25T07:12:04.182Z,22.43
2023-09-25T07:17:26.325Z,21.03
2023-09-25T07:22:48.110Z,26.06
2023-09-25T07:28:09.894Z,33.30
2023-09-25T07:33:33.279Z,33.35
2023-09-25T07:38:55.094Z,30.96
2023-09-25T07:44:17.379Z,21.92
2023-09-25T07:49:39.732Z,16.57
2023-09-25T07:55:01.501Z,14.45
2023-09-25T08:00:23.433Z,17.57
2023-09-25T08:05:45.197Z,15.18
2023-09-25T08:11:06.914Z,11.83
2023-09-25T08:16:28.723Z,12.62
2023-09-25T08:21:51.692Z,13.20
2023-09-25T08:27:13.621Z,11.80
2023-09-25T08:32:36.199Z,10.44
2023-09-25T08:37:57.990Z,12.90
2023-09-25T08:43:21.235Z,12.20
2023-09-25T08:48:45.552Z,9.29
2023-09-25T08:54:08.412Z,12.55
2023-09-25T08:59:31.588Z,13.56
2023-09-25T09:04:53.335Z,12.66
2023-09-25T09:10:15.065Z,11.71
2023-09-25T09:15:37.900Z,10.08
2023-09-25T09:20:59.637Z,9.36
2023-09-25T09:26:21.462Z,10.77
2023-09-25T09:31:43.213Z,9.67
2023-09-25T09:37:07.322Z,13.66
2023-09-25T09:42:31.318Z,12.98
2023-09-25T09:47:56.099Z,10.61
2023-09-25T09:53:18.593Z,9.10
2023-09-25T09:58:40.939Z,8.90
2023-09-25T10:04:06.014Z,10.93
2023-09-25T10:09:28.046Z,9.16
2023-09-25T10:14:49.782Z,9.76
2023-09-25T10:20:30.049Z,9.95
2023-09-25T10:25:56.823Z,8.75
2023-09-25T10:31:23.421Z,10.84
2023-09-25T10:36:46.873Z,9.98
2023-09-25T10:42:08.839Z,11.65
2023-09-25T10:47:32.530Z,10.52
2023-09-25T10:52:54.284Z,9.59
2023-09-25T10:58:16.384Z,11.48
2023-09-25T11:03:38.322Z,10.98
2023-09-25T11:09:06.530Z,11.50
2023-09-25T11:14:37.134Z,11.32
2023-09-25T11:19:58.925Z,14.70
2023-09-25T11:25:20.760Z,16.10
2023-09-25T11:30:42.616Z,15.92
2023-09-25T11:36:10.663Z,18.39
2023-09-25T11:41:32.386Z,20.62
2023-09-25T11:46:54.222Z,21.33
2023-09-25T11:52:15.957Z,24.68
2023-09-25T11:57:39.061Z,22.80
2023-09-25T12:03:00.856Z,22.49
2023-09-25T12:08:22.886Z,22.65
2023-09-25T12:13:44.632Z,22.23
2023-09-25T12:19:06.476Z,23.60
2023-09-25T12:24:28.342Z,23.78
2023-09-25T12:29:50.400Z,25.14
2023-09-25T12:35:12.641Z,29.10
2023-09-25T12:40:34.507Z,28.40
2023-09-25T12:45:56.396Z,31.05
2023-09-25T12:51:18.315Z,32.55
2023-09-25T12:56:40.588Z,31.06
2023-09-25T13:02:02.741Z,31.67
2023-09-25T13:07:24.504Z,30.75
2023-09-25T13:12:46.261Z,35.65
2023-09-25T13:18:08.015Z,33.31
2023-09-25T13:23:29.794Z,33.82
2023-09-25T13:28:52.836Z,32.66
2023-09-25T13:34:14.562Z,32.85
2023-09-25T13:39:36.695Z,34.39
2023-09-25T13:44:58.469Z,35.32
2023-09-25T13:50:20.245Z,36.42
2023-09-25T13:55:41.953Z,36.07
2023-09-25T14:01:03.731Z,37.63
2023-09-25T14:06:25.575Z,39.72
2023-09-25T14:11:48.506Z,38.57
2023-09-25T14:17:10.210Z,38.16
2023-09-25T14:22:31.965Z,38.79
2023-09-25T14:27:53.719Z,38.88
2023-09-25T14:33:15.528Z,39.85
2023-09-25T14:38:37.267Z,39.67
2023-09-25T14:43:58.999Z,39.91
2023-09-25T14:49:20.776Z,41.45
2023-09-25T14:54:42.583Z,41.74
2023-09-25T15:00:05.609Z,40.54
2023-09-25T15:05:27.316Z,40.87
2023-09-25T15:10:49.065Z,42.74
2023-09-25T15:16:11.026Z,43.46
2023-09-25T15:21:33.074Z,43.62
2023-09-25T15:26:54.805Z,44.59
2023-09-25T15:32:16.574Z,45.23
2023-09-25T15:37:38.421Z,45.02
2023-09-25T15:43:00.235Z,45.68
2023-09-25T15:48:22.015Z,46.67
2023-09-25T15:53:43.778Z,47.00
2023-09-25T15:59:05.617Z,47.49
2023-09-25T16:04:27.408Z,49.68
2023-09-25T16:09:49.320Z,49.17
2023-09-25T16:15:11.274Z,49.57
2023-09-25T16:20:34.045Z,49.73
2023-09-25T16:25:55.885Z,49.89
2023-09-25T16:31:17.840Z,52.56
2023-09-25T16:36:39.687Z,52.77
2023-09-25T16:42:01.516Z,53.48
2023-09-25T16:47:23.576Z,54.41
2023-09-25T16:52:45.792Z,54.32
2023-09-25T16:58:07.538Z,54.09
2023-09-25T17:03:29.422Z,54.01
2023-09-25T17:08:51.221Z,55.19
2023-09-25T17:14:12.930Z,55.84
2023-09-25T17:19:34.679Z,56.29
2023-09-25T17:24:56.463Z,57.72
2023-09-25T17:30:18.321Z,58.51
2023-09-25T17:35:40.043Z,59.50
2023-09-25T17:41:02.092Z,58.77
2023-09-25T17:46:23.953Z,59.11
2023-09-25T17:51:45.820Z,59.81
2023-09-25T17:57:07.526Z,60.34
2023-09-25T18:02:29.274Z,61.86
2023-09-25T18:07:51.071Z,62.06
2023-09-25T18:13:12.888Z,62.81
2023-09-25T18:18:34.713Z,63.93
2023-09-25T18:23:56.567Z,65.45
2023-09-25T18:29:19.003Z,66.29
2023-09-25T18:34:40.726Z,66.77
2023-09-25T18:40:04.294Z,68.06
2023-09-25T18:45:26.346Z,66.57
2023-09-25T18:50:48.124Z,66.06
2023-09-25T18:56:09.886Z,67.14
2023-09-25T19:01:31.764Z,68.52
2023-09-25T19:06:53.558Z,68.12
2023-09-25T19:12:15.322Z,68.11
2023-09-25T19:17:37.111Z,68.20
2023-09-25T19:22:58.864Z,68.32
2023-09-25T19:28:20.618Z,68.84
2023-09-25T19:39:12.079Z,70.29
2023-09-25T19:44:33.831Z,71.82
2023-09-25T19:49:55.641Z,72.28
2023-09-25T19:55:17.402Z,72.92
2023-09-25T20:00:39.240Z,73.72
2023-09-25T20:06:01.060Z,74.61
2023-09-25T20:11:22.861Z,75.05
2023-09-25T20:16:44.682Z,75.28
2023-09-25T20:22:06.602Z,75.79
2023-09-25T20:27:28.467Z,77.02
2023-09-25T20:32:50.257Z,76.24
2023-09-25T20:38:12.007Z,76.02
2023-09-25T20:43:33.742Z,76.07
2023-09-25T20:48:55.947Z,76.90
2023-09-25T20:54:17.697Z,77.45
2023-09-25T20:59:39.421Z,78.18
2023-09-25T21:05:01.196Z,79.37
2023-09-25T21:10:22.982Z,78.98
2023-09-25T21:15:44.773Z,79.04
2023-09-25T21:21:06.519Z,79.29
2023-09-25T21:26:28.248Z,80.91
2023-09-25T21:31:50.020Z,80.65
2023-09-25T21:37:11.869Z,82.11
2023-09-25T21:42:33.637Z,82.03
2023-09-25T21:47:55.699Z,81.81
2023-09-25T21:53:17.483Z,82.47
2023-09-25T21:58:39.190Z,82.04
2023-09-25T22:04:01.014Z,81.60
2023-09-25T22:09:22.867Z,81.21
2023-09-25T22:14:44.628Z,81.85
2023-09-25T22:20:06.823Z,80.68
2023-09-25T22:25:28.535Z,79.05
2023-09-25T22:30:50.320Z,78.34
2023-09-25T22:36:12.234Z,77.68
2023-09-25T22:41:33.987Z,78.44
2023-09-25T22:46:56.022Z,78.37
2023-09-25T22:52:17.835Z,77.83
2023-09-25T22:57:39.657Z,77.94
2023-09-25T23:03:01.524Z,77.55
2023-09-25T23:08:24.040Z,77.78
2023-09-25T23:13:45.855Z,78.13
2023-09-25T23:19:07.629Z,77.48
2023-09-25T23:24:29.328Z,77.50
2023-09-25T23:29:51.106Z,78.33
2023-09-25T23:35:14.568Z,79.09
2023-09-25T23:40:36.324Z,78.41
2023-09-25T23:45:58.093Z,80.66
2023-09-25T23:51:19.940Z,81.01
2023-09-25T23:56:41.629Z,80.83
